sensor_id;sensor_type;location;lat;lon;timestamp;P1;durP1;ratioP1;P2;durP2;ratioP2
30647;SDS011;17683;53.360;9.736;2023-05-10T00:02:06;5.85;;;3.10;;
30647;SDS011;17683;53.360;9.736;2023-05-10T00:04:32;12.23;;;3.25;;
30647;SDS011;17683;53.360;9.736;2023-05-10T00:06:58;5.35;;;4.10;;
30647;SDS011;17683;53.360;9.736;2023-05-10T00:09:24;3.75;;;2.83;;
30647;SDS011;17683;53.360;9.736;2023-05-10T00:11:50;7.15;;;3.33;;
30647;SDS011;17683;53.360;9.736;2023-05-10T00:14:16;5.55;;;3.20;;
30647;SDS011;17683;53.360;9.736;2023-05-10T00:16:42;5.78;;;3.50;;
30647;SDS011;17683;53.360;9.736;2023-05-10T00:19:07;5.10;;;2.80;;
30647;SDS011;17683;53.360;9.736;2023-05-10T00:21:33;8.65;;;3.10;;
30647;SDS011;17683;53.360;9.736;2023-05-10T00:23:59;3.83;;;3.13;;
30647;SDS011;17683;53.360;9.736;2023-05-10T00:26:25;4.20;;;3.22;;
30647;SDS011;17683;53.360;9.736;2023-05-10T00:28:51;4.68;;;2.83;;
30647;SDS011;17683;53.360;9.736;2023-05-10T00:31:16;4.15;;;2.63;;
30647;SDS011;17683;53.360;9.736;2023-05-10T00:33:42;4.32;;;3.28;;
30647;SDS011;17683;53.360;9.736;2023-05-10T00:36:08;6.93;;;3.17;;
30647;SDS011;17683;53.360;9.736;2023-05-10T00:38:33;3.53;;;2.80;;
30647;SDS011;17683;53.360;9.736;2023-05-10T00:40:59;6.70;;;2.97;;
30647;SDS011;17683;53.360;9.736;2023-05-10T00:43:25;4.50;;;3.15;;
30647;SDS011;17683;53.360;9.736;2023-05-10T00:45:51;4.25;;;3.22;;
30647;SDS011;17683;53.360;9.736;2023-05-10T00:48:17;7.07;;;2.88;;
30647;SDS011;17683;53.360;9.736;2023-05-10T00:50:43;5.40;;;3.40;;
30647;SDS011;17683;53.360;9.736;2023-05-10T00:53:09;7.07;;;3.63;;
30647;SDS011;17683;53.360;9.736;2023-05-10T00:55:35;8.30;;;3.75;;
30647;SDS011;17683;53.360;9.736;2023-05-10T00:58:02;6.15;;;3.42;;
30647;SDS011;17683;53.360;9.736;2023-05-10T01:00:28;9.40;;;3.70;;
30647;SDS011;17683;53.360;9.736;2023-05-10T01:02:54;8.10;;;3.53;;
30647;SDS011;17683;53.360;9.736;2023-05-10T01:05:20;4.22;;;3.40;;
30647;SDS011;17683;53.360;9.736;2023-05-10T01:07:46;6.15;;;3.35;;
30647;SDS011;17683;53.360;9.736;2023-05-10T01:10:13;5.38;;;3.30;;
30647;SDS011;17683;53.360;9.736;2023-05-10T01:12:40;5.65;;;3.72;;
30647;SDS011;17683;53.360;9.736;2023-05-10T01:15:07;12.20;;;3.90;;
30647;SDS011;17683;53.360;9.736;2023-05-10T01:17:36;3.58;;;3.28;;
30647;SDS011;17683;53.360;9.736;2023-05-10T01:20:04;5.45;;;3.45;;
30647;SDS011;17683;53.360;9.736;2023-05-10T01:31:28;3.50;;;3.03;;
30647;SDS011;17683;53.360;9.736;2023-05-10T01:34:16;8.15;;;4.20;;
30647;SDS011;17683;53.360;9.736;2023-05-10T01:36:48;4.75;;;3.45;;
30647;SDS011;17683;53.360;9.736;2023-05-10T01:39:42;4.68;;;3.72;;
30647;SDS011;17683;53.360;9.736;2023-05-10T01:42:11;5.18;;;3.53;;
30647;SDS011;17683;53.360;9.736;2023-05-10T01:45:07;5.10;;;3.47;;
30647;SDS011;17683;53.360;9.736;2023-05-10T01:47:38;4.45;;;3.67;;
30647;SDS011;17683;53.360;9.736;2023-05-10T01:50:10;5.03;;;3.85;;
30647;SDS011;17683;53.360;9.736;2023-05-10T01:52:44;6.80;;;3.42;;
30647;SDS011;17683;53.360;9.736;2023-05-10T01:55:15;4.68;;;3.53;;
30647;SDS011;17683;53.360;9.736;2023-05-10T01:57:43;7.75;;;3.85;;
30647;SDS011;17683;53.360;9.736;2023-05-10T02:00:11;6.47;;;3.92;;
30647;SDS011;17683;53.360;9.736;2023-05-10T02:02:42;5.10;;;4.10;;
30647;SDS011;17683;53.360;9.736;2023-05-10T02:05:12;9.40;;;3.80;;
30647;SDS011;17683;53.360;9.736;2023-05-10T02:07:39;6.60;;;3.80;;
30647;SDS011;17683;53.360;9.736;2023-05-10T02:10:06;4.50;;;3.80;;
30647;SDS011;17683;53.360;9.736;2023-05-10T02:12:44;5.15;;;3.85;;
30647;SDS011;17683;53.360;9.736;2023-05-10T02:15:14;12.30;;;4.22;;
30647;SDS011;17683;53.360;9.736;2023-05-10T02:20:12;7.07;;;4.05;;
30647;SDS011;17683;53.360;9.736;2023-05-10T02:22:39;4.57;;;3.60;;
30647;SDS011;17683;53.360;9.736;2023-05-10T02:25:05;5.50;;;3.80;;
30647;SDS011;17683;53.360;9.736;2023-05-10T02:27:33;7.03;;;4.10;;
30647;SDS011;17683;53.360;9.736;2023-05-10T02:30:01;6.60;;;3.60;;
30647;SDS011;17683;53.360;9.736;2023-05-10T02:32:27;5.30;;;3.65;;
30647;SDS011;17683;53.360;9.736;2023-05-10T02:34:54;5.45;;;3.97;;
30647;SDS011;17683;53.360;9.736;2023-05-10T02:37:22;10.50;;;5.03;;
30647;SDS011;17683;53.360;9.736;2023-05-10T02:39:49;7.75;;;4.10;;
30647;SDS011;17683;53.360;9.736;2023-05-10T02:42:17;5.03;;;4.43;;
30647;SDS011;17683;53.360;9.736;2023-05-10T02:44:48;4.45;;;3.65;;
30647;SDS011;17683;53.360;9.736;2023-05-10T02:47:17;5.97;;;4.45;;
30647;SDS011;17683;53.360;9.736;2023-05-10T02:49:43;8.18;;;4.30;;
30647;SDS011;17683;53.360;9.736;2023-05-10T02:52:09;6.97;;;4.00;;
30647;SDS011;17683;53.360;9.736;2023-05-10T02:54:45;7.38;;;4.32;;
30647;SDS011;17683;53.360;9.736;2023-05-10T02:57:15;5.35;;;3.92;;
30647;SDS011;17683;53.360;9.736;2023-05-10T02:59:43;7.32;;;4.18;;
30647;SDS011;17683;53.360;9.736;2023-05-10T03:02:10;6.97;;;4.57;;
30647;SDS011;17683;53.360;9.736;2023-05-10T03:04:37;4.85;;;4.00;;
30647;SDS011;17683;53.360;9.736;2023-05-10T03:07:03;4.05;;;3.13;;
30647;SDS011;17683;53.360;9.736;2023-05-10T03:09:29;8.38;;;3.80;;
30647;SDS011;17683;53.360;9.736;2023-05-10T03:20:31;5.82;;;3.53;;
30647;SDS011;17683;53.360;9.736;2023-05-10T03:25:46;8.35;;;3.97;;
30647;SDS011;17683;53.360;9.736;2023-05-10T03:28:14;5.47;;;4.03;;
30647;SDS011;17683;53.360;9.736;2023-05-10T03:30:41;5.38;;;4.20;;
30647;SDS011;17683;53.360;9.736;2023-05-10T03:33:08;8.32;;;4.47;;
30647;SDS011;17683;53.360;9.736;2023-05-10T03:35:34;9.13;;;4.72;;
30647;SDS011;17683;53.360;9.736;2023-05-10T03:38:00;6.38;;;4.47;;
30647;SDS011;17683;53.360;9.736;2023-05-10T03:40:26;6.28;;;3.83;;
30647;SDS011;17683;53.360;9.736;2023-05-10T03:43:00;6.93;;;4.15;;
30647;SDS011;17683;53.360;9.736;2023-05-10T03:45:26;6.35;;;3.92;;
30647;SDS011;17683;53.360;9.736;2023-05-10T03:47:52;6.93;;;4.63;;
30647;SDS011;17683;53.360;9.736;2023-05-10T03:50:19;5.53;;;4.13;;
30647;SDS011;17683;53.360;9.736;2023-05-10T03:52:45;6.68;;;3.90;;
30647;SDS011;17683;53.360;9.736;2023-05-10T03:55:11;13.07;;;4.32;;
30647;SDS011;17683;53.360;9.736;2023-05-10T03:57:37;5.78;;;4.05;;
30647;SDS011;17683;53.360;9.736;2023-05-10T04:00:03;7.60;;;4.15;;
30647;SDS011;17683;53.360;9.736;2023-05-10T04:02:29;4.07;;;3.63;;
30647;SDS011;17683;53.360;9.736;2023-05-10T04:04:55;5.55;;;4.13;;
30647;SDS011;17683;53.360;9.736;2023-05-10T04:07:21;6.65;;;4.55;;
30647;SDS011;17683;53.360;9.736;2023-05-10T04:09:47;7.43;;;4.53;;
30647;SDS011;17683;53.360;9.736;2023-05-10T04:12:13;7.75;;;4.93;;
30647;SDS011;17683;53.360;9.736;2023-05-10T04:14:38;7.43;;;4.30;;
30647;SDS011;17683;53.360;9.736;2023-05-10T04:17:04;4.88;;;4.38;;
30647;SDS011;17683;53.360;9.736;2023-05-10T04:19:30;8.13;;;4.85;;
30647;SDS011;17683;53.360;9.736;2023-05-10T04:21:56;13.25;;;4.05;;
30647;SDS011;17683;53.360;9.736;2023-05-10T04:24:22;4.95;;;4.43;;
30647;SDS011;17683;53.360;9.736;2023-05-10T04:26:48;5.10;;;4.05;;
30647;SDS011;17683;53.360;9.736;2023-05-10T04:29:14;7.15;;;3.75;;
30647;SDS011;17683;53.360;9.736;2023-05-10T04:31:40;9.70;;;4.63;;
30647;SDS011;17683;53.360;9.736;2023-05-10T04:34:05;9.13;;;4.60;;
30647;SDS011;17683;53.360;9.736;2023-05-10T04:36:31;8.52;;;4.72;;
30647;SDS011;17683;53.360;9.736;2023-05-10T04:39:01;4.10;;;3.70;;
30647;SDS011;17683;53.360;9.736;2023-05-10T04:41:28;6.38;;;4.28;;
30647;SDS011;17683;53.360;9.736;2023-05-10T04:43:54;10.63;;;5.38;;
30647;SDS011;17683;53.360;9.736;2023-05-10T04:46:20;12.73;;;4.57;;
30647;SDS011;17683;53.360;9.736;2023-05-10T04:48:46;10.20;;;4.47;;
30647;SDS011;17683;53.360;9.736;2023-05-10T04:51:12;8.20;;;4.60;;
30647;SDS011;17683;53.360;9.736;2023-05-10T04:53:38;6.00;;;4.20;;
30647;SDS011;17683;53.360;9.736;2023-05-10T04:56:04;5.88;;;4.03;;
30647;SDS011;17683;53.360;9.736;2023-05-10T04:58:30;7.10;;;4.03;;
30647;SDS011;17683;53.360;9.736;2023-05-10T05:00:55;5.82;;;4.60;;
30647;SDS011;17683;53.360;9.736;2023-05-10T05:03:21;6.22;;;4.22;;
30647;SDS011;17683;53.360;9.736;2023-05-10T05:05:47;7.60;;;4.97;;
30647;SDS011;17683;53.360;9.736;2023-05-10T05:08:13;8.13;;;4.18;;
30647;SDS011;17683;53.360;9.736;2023-05-10T05:10:39;5.90;;;4.93;;
30647;SDS011;17683;53.360;9.736;2023-05-10T05:13:05;6.72;;;4.40;;
30647;SDS011;17683;53.360;9.736;2023-05-10T05:15:31;9.38;;;5.22;;
30647;SDS011;17683;53.360;9.736;2023-05-10T05:17:57;6.43;;;4.57;;
30647;SDS011;17683;53.360;9.736;2023-05-10T05:20:22;16.33;;;5.63;;
30647;SDS011;17683;53.360;9.736;2023-05-10T05:22:48;5.60;;;4.65;;
30647;SDS011;17683;53.360;9.736;2023-05-10T05:25:14;9.13;;;4.68;;
30647;SDS011;17683;53.360;9.736;2023-05-10T05:27:40;7.50;;;5.03;;
30647;SDS011;17683;53.360;9.736;2023-05-10T05:30:06;4.68;;;4.13;;
30647;SDS011;17683;53.360;9.736;2023-05-10T05:32:33;8.07;;;4.10;;
30647;SDS011;17683;53.360;9.736;2023-05-10T05:34:58;9.48;;;5.43;;
30647;SDS011;17683;53.360;9.736;2023-05-10T05:37:24;7.45;;;4.72;;
30647;SDS011;17683;53.360;9.736;2023-05-10T05:39:50;10.95;;;4.20;;
30647;SDS011;17683;53.360;9.736;2023-05-10T05:42:16;8.55;;;4.50;;
30647;SDS011;17683;53.360;9.736;2023-05-10T05:44:43;10.23;;;5.57;;
30647;SDS011;17683;53.360;9.736;2023-05-10T05:47:09;6.13;;;4.60;;
30647;SDS011;17683;53.360;9.736;2023-05-10T05:49:35;11.88;;;5.60;;
30647;SDS011;17683;53.360;9.736;2023-05-10T05:52:01;6.57;;;4.63;;
30647;SDS011;17683;53.360;9.736;2023-05-10T05:54:28;8.60;;;4.78;;
30647;SDS011;17683;53.360;9.736;2023-05-10T05:56:55;11.02;;;5.18;;
30647;SDS011;17683;53.360;9.736;2023-05-10T05:59:22;5.07;;;4.47;;
30647;SDS011;17683;53.360;9.736;2023-05-10T06:01:48;6.07;;;4.63;;
30647;SDS011;17683;53.360;9.736;2023-05-10T06:04:14;9.70;;;5.35;;
30647;SDS011;17683;53.360;9.736;2023-05-10T06:06:39;8.18;;;5.00;;
30647;SDS011;17683;53.360;9.736;2023-05-10T06:09:05;5.53;;;4.65;;
30647;SDS011;17683;53.360;9.736;2023-05-10T06:11:31;10.18;;;4.57;;
30647;SDS011;17683;53.360;9.736;2023-05-10T06:14:00;5.75;;;4.40;;
30647;SDS011;17683;53.360;9.736;2023-05-10T06:16:26;7.15;;;4.35;;
30647;SDS011;17683;53.360;9.736;2023-05-10T06:18:52;14.10;;;4.45;;
30647;SDS011;17683;53.360;9.736;2023-05-10T06:21:18;6.70;;;4.70;;
30647;SDS011;17683;53.360;9.736;2023-05-10T06:23:43;7.47;;;4.60;;
30647;SDS011;17683;53.360;9.736;2023-05-10T06:26:09;7.45;;;4.90;;
30647;SDS011;17683;53.360;9.736;2023-05-10T06:28:35;6.65;;;4.10;;
30647;SDS011;17683;53.360;9.736;2023-05-10T06:31:03;5.22;;;4.40;;
30647;SDS011;17683;53.360;9.736;2023-05-10T06:33:30;19.50;;;4.63;;
30647;SDS011;17683;53.360;9.736;2023-05-10T06:35:56;6.05;;;4.57;;
30647;SDS011;17683;53.360;9.736;2023-05-10T06:38:22;5.15;;;4.50;;
30647;SDS011;17683;53.360;9.736;2023-05-10T06:40:48;6.82;;;4.30;;
30647;SDS011;17683;53.360;9.736;2023-05-10T06:43:14;6.13;;;4.78;;
30647;SDS011;17683;53.360;9.736;2023-05-10T06:45:40;6.82;;;5.03;;
30647;SDS011;17683;53.360;9.736;2023-05-10T06:48:06;8.23;;;4.18;;
30647;SDS011;17683;53.360;9.736;2023-05-10T06:50:32;6.50;;;4.60;;
30647;SDS011;17683;53.360;9.736;2023-05-10T06:52:58;8.85;;;4.65;;
30647;SDS011;17683;53.360;9.736;2023-05-10T06:55:25;5.95;;;4.35;;
30647;SDS011;17683;53.360;9.736;2023-05-10T06:57:51;10.05;;;4.88;;
30647;SDS011;17683;53.360;9.736;2023-05-10T07:00:17;6.68;;;4.60;;
30647;SDS011;17683;53.360;9.736;2023-05-10T07:02:44;5.65;;;4.05;;
30647;SDS011;17683;53.360;9.736;2023-05-10T07:05:10;7.93;;;4.25;;
30647;SDS011;17683;53.360;9.736;2023-05-10T07:07:37;9.43;;;4.38;;
30647;SDS011;17683;53.360;9.736;2023-05-10T07:10:03;5.75;;;3.72;;
30647;SDS011;17683;53.360;9.736;2023-05-10T07:12:29;8.13;;;4.28;;
30647;SDS011;17683;53.360;9.736;2023-05-10T07:14:54;10.40;;;4.10;;
30647;SDS011;17683;53.360;9.736;2023-05-10T07:17:20;5.75;;;4.32;;
30647;SDS011;17683;53.360;9.736;2023-05-10T07:19:46;4.20;;;3.75;;
30647;SDS011;17683;53.360;9.736;2023-05-10T07:22:12;4.70;;;3.88;;
30647;SDS011;17683;53.360;9.736;2023-05-10T07:24:37;7.50;;;4.88;;
30647;SDS011;17683;53.360;9.736;2023-05-10T07:27:04;8.50;;;5.28;;
30647;SDS011;17683;53.360;9.736;2023-05-10T07:29:30;8.38;;;4.50;;
30647;SDS011;17683;53.360;9.736;2023-05-10T07:31:55;6.22;;;4.65;;
30647;SDS011;17683;53.360;9.736;2023-05-10T07:34:21;8.77;;;4.85;;
30647;SDS011;17683;53.360;9.736;2023-05-10T07:36:47;6.47;;;4.43;;
30647;SDS011;17683;53.360;9.736;2023-05-10T07:39:12;8.50;;;5.13;;
30647;SDS011;17683;53.360;9.736;2023-05-10T07:41:38;7.80;;;5.07;;
30647;SDS011;17683;53.360;9.736;2023-05-10T07:44:04;8.27;;;4.75;;
30647;SDS011;17683;53.360;9.736;2023-05-10T07:46:31;5.85;;;4.40;;
30647;SDS011;17683;53.360;9.736;2023-05-10T07:48:56;7.80;;;4.65;;
30647;SDS011;17683;53.360;9.736;2023-05-10T07:51:22;6.05;;;4.40;;
30647;SDS011;17683;53.360;9.736;2023-05-10T07:53:48;5.25;;;4.57;;
30647;SDS011;17683;53.360;9.736;2023-05-10T07:56:26;8.52;;;5.43;;
30647;SDS011;17683;53.360;9.736;2023-05-10T07:59:00;10.40;;;5.25;;
30647;SDS011;17683;53.360;9.736;2023-05-10T08:01:32;13.52;;;5.00;;
30647;SDS011;17683;53.360;9.736;2023-05-10T08:03:59;8.48;;;5.40;;
30647;SDS011;17683;53.360;9.736;2023-05-10T08:06:25;9.73;;;5.22;;
30647;SDS011;17683;53.360;9.736;2023-05-10T08:08:53;6.90;;;4.15;;
30647;SDS011;17683;53.360;9.736;2023-05-10T08:11:19;6.72;;;4.82;;
30647;SDS011;17683;53.360;9.736;2023-05-10T08:13:45;9.05;;;5.40;;
30647;SDS011;17683;53.360;9.736;2023-05-10T08:16:12;6.50;;;5.18;;
30647;SDS011;17683;53.360;9.736;2023-05-10T08:18:38;6.65;;;5.15;;
30647;SDS011;17683;53.360;9.736;2023-05-10T08:21:04;10.75;;;5.30;;
30647;SDS011;17683;53.360;9.736;2023-05-10T08:23:30;6.45;;;4.90;;
30647;SDS011;17683;53.360;9.736;2023-05-10T08:25:56;5.43;;;4.93;;
30647;SDS011;17683;53.360;9.736;2023-05-10T08:28:22;9.00;;;4.80;;
30647;SDS011;17683;53.360;9.736;2023-05-10T08:30:49;9.10;;;5.93;;
30647;SDS011;17683;53.360;9.736;2023-05-10T08:33:15;8.23;;;5.68;;
30647;SDS011;17683;53.360;9.736;2023-05-10T08:35:42;6.03;;;5.22;;
30647;SDS011;17683;53.360;9.736;2023-05-10T08:38:07;6.72;;;5.75;;
30647;SDS011;17683;53.360;9.736;2023-05-10T08:40:33;5.88;;;5.00;;
30647;SDS011;17683;53.360;9.736;2023-05-10T08:43:04;7.50;;;6.10;;
30647;SDS011;17683;53.360;9.736;2023-05-10T08:45:32;7.93;;;6.13;;
30647;SDS011;17683;53.360;9.736;2023-05-10T08:48:02;10.88;;;6.07;;
30647;SDS011;17683;53.360;9.736;2023-05-10T08:50:31;7.47;;;5.63;;
30647;SDS011;17683;53.360;9.736;2023-05-10T08:52:57;8.02;;;5.40;;
30647;SDS011;17683;53.360;9.736;2023-05-10T08:55:26;7.78;;;6.57;;
30647;SDS011;17683;53.360;9.736;2023-05-10T08:57:52;7.57;;;5.95;;
30647;SDS011;17683;53.360;9.736;2023-05-10T09:00:18;8.40;;;6.57;;
30647;SDS011;17683;53.360;9.736;2023-05-10T09:02:45;12.43;;;7.05;;
30647;SDS011;17683;53.360;9.736;2023-05-10T09:05:11;9.43;;;6.40;;
30647;SDS011;17683;53.360;9.736;2023-05-10T09:07:37;9.57;;;6.70;;
30647;SDS011;17683;53.360;9.736;2023-05-10T09:10:04;10.25;;;7.25;;
30647;SDS011;17683;53.360;9.736;2023-05-10T09:12:30;10.38;;;7.20;;
30647;SDS011;17683;53.360;9.736;2023-05-10T09:14:57;10.00;;;6.78;;
30647;SDS011;17683;53.360;9.736;2023-05-10T09:17:24;10.60;;;7.53;;
30647;SDS011;17683;53.360;9.736;2023-05-10T09:20:01;11.20;;;7.43;;
30647;SDS011;17683;53.360;9.736;2023-05-10T09:22:29;11.43;;;7.18;;
30647;SDS011;17683;53.360;9.736;2023-05-10T09:25:05;7.78;;;6.97;;
30647;SDS011;17683;53.360;9.736;2023-05-10T09:27:35;10.65;;;7.38;;
30647;SDS011;17683;53.360;9.736;2023-05-10T09:30:02;10.13;;;7.45;;
30647;SDS011;17683;53.360;9.736;2023-05-10T09:32:39;9.88;;;7.43;;
30647;SDS011;17683;53.360;9.736;2023-05-10T09:37:41;9.90;;;8.25;;
30647;SDS011;17683;53.360;9.736;2023-05-10T09:40:12;8.68;;;7.45;;
30647;SDS011;17683;53.360;9.736;2023-05-10T09:42:42;12.47;;;8.63;;
30647;SDS011;17683;53.360;9.736;2023-05-10T09:45:15;10.70;;;8.38;;
30647;SDS011;17683;53.360;9.736;2023-05-10T09:47:41;12.77;;;7.72;;
30647;SDS011;17683;53.360;9.736;2023-05-10T09:50:07;12.02;;;7.40;;
30647;SDS011;17683;53.360;9.736;2023-05-10T09:52:54;13.00;;;8.32;;
30647;SDS011;17683;53.360;9.736;2023-05-10T09:55:24;9.52;;;8.40;;
30647;SDS011;17683;53.360;9.736;2023-05-10T09:58:11;9.02;;;8.02;;
30647;SDS011;17683;53.360;9.736;2023-05-10T10:00:41;10.93;;;8.23;;
30647;SDS011;17683;53.360;9.736;2023-05-10T10:03:14;10.60;;;9.10;;
30647;SDS011;17683;53.360;9.736;2023-05-10T10:05:42;13.05;;;10.27;;
30647;SDS011;17683;53.360;9.736;2023-05-10T10:08:09;15.73;;;9.55;;
30647;SDS011;17683;53.360;9.736;2023-05-10T10:10:36;11.32;;;9.60;;
30647;SDS011;17683;53.360;9.736;2023-05-10T10:13:01;12.90;;;11.60;;
30647;SDS011;17683;53.360;9.736;2023-05-10T10:15:27;14.10;;;10.68;;
30647;SDS011;17683;53.360;9.736;2023-05-10T10:17:53;13.43;;;10.88;;
30647;SDS011;17683;53.360;9.736;2023-05-10T10:20:20;15.38;;;10.13;;
30647;SDS011;17683;53.360;9.736;2023-05-10T10:22:47;13.45;;;11.95;;
30647;SDS011;17683;53.360;9.736;2023-05-10T10:25:14;15.57;;;11.70;;
30647;SDS011;17683;53.360;9.736;2023-05-10T10:30:13;13.93;;;11.52;;
30647;SDS011;17683;53.360;9.736;2023-05-10T10:36:02;12.00;;;10.80;;
30647;SDS011;17683;53.360;9.736;2023-05-10T10:42:13;13.75;;;11.40;;
30647;SDS011;17683;53.360;9.736;2023-05-10T10:54:50;11.77;;;10.35;;
30647;SDS011;17683;53.360;9.736;2023-05-10T11:11:01;17.63;;;12.38;;
30647;SDS011;17683;53.360;9.736;2023-05-10T11:16:10;13.30;;;11.88;;
30647;SDS011;17683;53.360;9.736;2023-05-10T11:21:22;15.40;;;11.45;;
30647;SDS011;17683;53.360;9.736;2023-05-10T11:23:49;13.40;;;12.00;;
30647;SDS011;17683;53.360;9.736;2023-05-10T11:26:16;13.95;;;12.55;;
30647;SDS011;17683;53.360;9.736;2023-05-10T11:28:47;13.57;;;11.70;;
30647;SDS011;17683;53.360;9.736;2023-05-10T11:31:17;12.00;;;10.60;;
30647;SDS011;17683;53.360;9.736;2023-05-10T11:33:44;15.18;;;11.77;;
30647;SDS011;17683;53.360;9.736;2023-05-10T11:36:14;13.57;;;12.05;;
30647;SDS011;17683;53.360;9.736;2023-05-10T11:38:42;13.23;;;11.02;;
30647;SDS011;17683;53.360;9.736;2023-05-10T11:41:11;14.70;;;12.02;;
30647;SDS011;17683;53.360;9.736;2023-05-10T11:43:41;14.30;;;10.95;;
30647;SDS011;17683;53.360;9.736;2023-05-10T11:46:07;15.73;;;12.10;;
30647;SDS011;17683;53.360;9.736;2023-05-10T11:48:35;12.30;;;10.07;;
30647;SDS011;17683;53.360;9.736;2023-05-10T11:51:03;11.10;;;10.00;;
30647;SDS011;17683;53.360;9.736;2023-05-10T11:53:30;14.07;;;12.57;;
30647;SDS011;17683;53.360;9.736;2023-05-10T11:56:04;13.18;;;11.75;;
30647;SDS011;17683;53.360;9.736;2023-05-10T11:58:31;14.88;;;12.48;;
30647;SDS011;17683;53.360;9.736;2023-05-10T12:00:58;15.98;;;13.25;;
30647;SDS011;17683;53.360;9.736;2023-05-10T12:03:25;14.40;;;12.40;;
30647;SDS011;17683;53.360;9.736;2023-05-10T12:05:55;13.50;;;12.10;;
30647;SDS011;17683;53.360;9.736;2023-05-10T12:08:22;11.57;;;10.38;;
30647;SDS011;17683;53.360;9.736;2023-05-10T12:10:52;12.48;;;10.77;;
30647;SDS011;17683;53.360;9.736;2023-05-10T12:13:28;12.82;;;11.45;;
30647;SDS011;17683;53.360;9.736;2023-05-10T12:15:54;14.52;;;11.30;;
30647;SDS011;17683;53.360;9.736;2023-05-10T12:18:22;15.30;;;10.65;;
30647;SDS011;17683;53.360;9.736;2023-05-10T12:20:52;12.15;;;10.60;;
30647;SDS011;17683;53.360;9.736;2023-05-10T12:23:21;17.15;;;11.68;;
30647;SDS011;17683;53.360;9.736;2023-05-10T12:25:46;12.88;;;11.45;;
30647;SDS011;17683;53.360;9.736;2023-05-10T12:28:12;12.93;;;9.60;;
30647;SDS011;17683;53.360;9.736;2023-05-10T12:30:38;14.27;;;11.35;;
30647;SDS011;17683;53.360;9.736;2023-05-10T12:35:32;14.73;;;13.30;;
30647;SDS011;17683;53.360;9.736;2023-05-10T12:37:59;12.82;;;11.55;;
30647;SDS011;17683;53.360;9.736;2023-05-10T12:40:25;18.30;;;11.25;;
30647;SDS011;17683;53.360;9.736;2023-05-10T12:42:50;14.60;;;13.20;;
30647;SDS011;17683;53.360;9.736;2023-05-10T12:45:17;13.25;;;11.50;;
30647;SDS011;17683;53.360;9.736;2023-05-10T12:47:43;13.52;;;12.10;;
30647;SDS011;17683;53.360;9.736;2023-05-10T12:50:09;14.65;;;12.88;;
30647;SDS011;17683;53.360;9.736;2023-05-10T12:52:35;13.90;;;11.70;;
30647;SDS011;17683;53.360;9.736;2023-05-10T12:55:02;12.68;;;11.40;;
30647;SDS011;17683;53.360;9.736;2023-05-10T12:57:28;13.35;;;11.20;;
30647;SDS011;17683;53.360;9.736;2023-05-10T12:59:54;14.13;;;11.50;;
30647;SDS011;17683;53.360;9.736;2023-05-10T13:02:20;11.85;;;10.63;;
30647;SDS011;17683;53.360;9.736;2023-05-10T13:04:48;11.48;;;10.40;;
30647;SDS011;17683;53.360;9.736;2023-05-10T13:07:14;12.40;;;10.35;;
30647;SDS011;17683;53.360;9.736;2023-05-10T13:09:40;11.48;;;10.27;;
30647;SDS011;17683;53.360;9.736;2023-05-10T13:12:05;11.73;;;9.75;;
30647;SDS011;17683;53.360;9.736;2023-05-10T13:14:31;11.52;;;10.43;;
30647;SDS011;17683;53.360;9.736;2023-05-10T13:16:57;10.30;;;8.68;;
30647;SDS011;17683;53.360;9.736;2023-05-10T13:19:23;11.40;;;10.20;;
30647;SDS011;17683;53.360;9.736;2023-05-10T13:21:48;11.32;;;10.23;;
30647;SDS011;17683;53.360;9.736;2023-05-10T13:24:14;12.57;;;11.35;;
30647;SDS011;17683;53.360;9.736;2023-05-10T13:26:40;11.23;;;10.07;;
30647;SDS011;17683;53.360;9.736;2023-05-10T13:29:06;11.82;;;10.63;;
30647;SDS011;17683;53.360;9.736;2023-05-10T13:31:33;11.90;;;10.70;;
30647;SDS011;17683;53.360;9.736;2023-05-10T13:33:59;11.63;;;10.43;;
30647;SDS011;17683;53.360;9.736;2023-05-10T13:36:24;11.50;;;10.40;;
30647;SDS011;17683;53.360;9.736;2023-05-10T13:38:50;11.60;;;10.40;;
30647;SDS011;17683;53.360;9.736;2023-05-10T13:41:16;13.40;;;9.77;;
30647;SDS011;17683;53.360;9.736;2023-05-10T13:43:42;10.48;;;9.43;;
30647;SDS011;17683;53.360;9.736;2023-05-10T13:46:07;11.50;;;10.40;;
30647;SDS011;17683;53.360;9.736;2023-05-10T13:48:33;8.80;;;7.90;;
30647;SDS011;17683;53.360;9.736;2023-05-10T13:50:59;9.82;;;8.32;;
30647;SDS011;17683;53.360;9.736;2023-05-10T13:53:24;11.60;;;8.80;;
30647;SDS011;17683;53.360;9.736;2023-05-10T13:55:50;9.30;;;7.97;;
30647;SDS011;17683;53.360;9.736;2023-05-10T13:58:16;11.07;;;7.90;;
30647;SDS011;17683;53.360;9.736;2023-05-10T14:00:41;7.70;;;7.00;;
30647;SDS011;17683;53.360;9.736;2023-05-10T14:03:07;9.60;;;7.80;;
30647;SDS011;17683;53.360;9.736;2023-05-10T14:05:35;8.88;;;7.28;;
30647;SDS011;17683;53.360;9.736;2023-05-10T14:08:01;7.15;;;6.45;;
30647;SDS011;17683;53.360;9.736;2023-05-10T14:10:28;10.02;;;8.45;;
30647;SDS011;17683;53.360;9.736;2023-05-10T14:12:55;7.95;;;7.15;;
30647;SDS011;17683;53.360;9.736;2023-05-10T14:15:20;6.68;;;6.00;;
30647;SDS011;17683;53.360;9.736;2023-05-10T14:17:46;5.95;;;5.30;;
30647;SDS011;17683;53.360;9.736;2023-05-10T14:20:12;7.30;;;6.40;;
30647;SDS011;17683;53.360;9.736;2023-05-10T14:22:37;7.35;;;6.65;;
30647;SDS011;17683;53.360;9.736;2023-05-10T14:25:03;5.97;;;5.43;;
30647;SDS011;17683;53.360;9.736;2023-05-10T14:27:29;7.13;;;6.47;;
30647;SDS011;17683;53.360;9.736;2023-05-10T14:29:55;6.38;;;5.78;;
30647;SDS011;17683;53.360;9.736;2023-05-10T14:32:21;6.65;;;5.75;;
30647;SDS011;17683;53.360;9.736;2023-05-10T14:34:46;7.03;;;6.32;;
30647;SDS011;17683;53.360;9.736;2023-05-10T14:37:13;6.75;;;6.00;;
30647;SDS011;17683;53.360;9.736;2023-05-10T14:39:40;9.05;;;5.90;;
30647;SDS011;17683;53.360;9.736;2023-05-10T14:42:07;7.30;;;6.10;;
30647;SDS011;17683;53.360;9.736;2023-05-10T14:44:33;6.20;;;5.60;;
30647;SDS011;17683;53.360;9.736;2023-05-10T14:46:59;11.95;;;5.95;;
30647;SDS011;17683;53.360;9.736;2023-05-10T14:49:25;7.10;;;5.90;;
30647;SDS011;17683;53.360;9.736;2023-05-10T14:51:51;9.45;;;5.65;;
30647;SDS011;17683;53.360;9.736;2023-05-10T14:54:17;8.15;;;6.63;;
30647;SDS011;17683;53.360;9.736;2023-05-10T14:56:42;7.35;;;6.25;;
30647;SDS011;17683;53.360;9.736;2023-05-10T14:59:08;6.65;;;5.45;;
30647;SDS011;17683;53.360;9.736;2023-05-10T15:01:34;8.13;;;5.65;;
30647;SDS011;17683;53.360;9.736;2023-05-10T15:04:02;6.28;;;5.68;;
30647;SDS011;17683;53.360;9.736;2023-05-10T15:06:32;5.68;;;5.07;;
30647;SDS011;17683;53.360;9.736;2023-05-10T15:09:00;5.57;;;5.07;;
30647;SDS011;17683;53.360;9.736;2023-05-10T15:11:26;4.75;;;4.25;;
30647;SDS011;17683;53.360;9.736;2023-05-10T15:13:53;4.82;;;3.88;;
30647;SDS011;17683;53.360;9.736;2023-05-10T15:16:18;3.63;;;2.63;;
30647;SDS011;17683;53.360;9.736;2023-05-10T15:18:44;3.45;;;2.85;;
30647;SDS011;17683;53.360;9.736;2023-05-10T15:21:10;3.55;;;3.22;;
30647;SDS011;17683;53.360;9.736;2023-05-10T15:23:37;3.50;;;2.80;;
30647;SDS011;17683;53.360;9.736;2023-05-10T15:26:02;3.13;;;2.85;;
30647;SDS011;17683;53.360;9.736;2023-05-10T15:28:28;3.05;;;2.50;;
30647;SDS011;17683;53.360;9.736;2023-05-10T15:30:54;6.28;;;2.60;;
30647;SDS011;17683;53.360;9.736;2023-05-10T15:33:21;2.65;;;2.45;;
30647;SDS011;17683;53.360;9.736;2023-05-10T15:35:47;2.60;;;2.40;;
30647;SDS011;17683;53.360;9.736;2023-05-10T15:38:12;2.83;;;2.25;;
30647;SDS011;17683;53.360;9.736;2023-05-10T15:40:38;3.78;;;3.40;;
30647;SDS011;17683;53.360;9.736;2023-05-10T15:43:04;4.70;;;3.75;;
30647;SDS011;17683;53.360;9.736;2023-05-10T15:45:32;6.55;;;3.63;;
30647;SDS011;17683;53.360;9.736;2023-05-10T15:47:58;4.32;;;3.63;;